Macaé Airport
SBME : now visible

Airfield :











YOU CAN JOIN US ON...

 
LOGIN :

Register | Disclaimer

   EN    FR    IT 

 









Legend :    VFR   Marginal VFR   IFR   Intensive IFR   Very Intensive IFR
Visi :
Ceiling :
>= 8 km
>= 3000ft
5 to 8 km
1000 to 3000 ft
1500m to 5 km
500 to 1000 ft
800 to 1500m
200 to 500 ft
< 800m
< 200 ft
Symbols :   Thunderstorms  Fog  Heavy snow  Heavy precipitations  Wind > 20 kt






- Airport Elevation : 8 ft
- IATA code : MEA


SBME - Macaé

CURRENT METAR :
  • 312000Z 10003KT CAVOK 24/20 Q1015

EXPIRED METARs :
  • 311900Z 12004KT CAVOK 25/19 Q1014
  • 311800Z 14005KT CAVOK 26/19 Q1014

TAF TAF SBME
Valid from the 31 at 18:00 until the 01 at 06:00 UTC


311500Z 3118/0106 16006KT CAVOK TX27/3118Z TN17/0105Z
BECMG 0100/0102 33006KT RMK PAZ
SBCW FIR / South America



MET'MAP, your aeronautical weather chart ! - Copyright ORBIFLY December 2007 - Disclaimer

ORBIFLY MET'MAP TEAM :

Programming & Development : Alexandra Zaïnal
Concept & original design : Baudouin d'Aumeries
Assistance for programming : Marc-Olivier Méhu
Technical & hardware support : Manuel Goepfert

Contact : metmap@orbifly.com




SOURCES & CREDITS :

   NOAA       Earth
Advisory